Time;durP1;ratioP1;P1;durP2;ratioP2;P2;SDS_P1;SDS_P2;PMS_P1;PMS_P2;Temp;Humidity;BMP_temperature;BMP_pressure;BME280_temperature;BME280_humidity;BME280_pressure;Samples;Min_cycle;Max_cycle;Signal;HPM_P1;HPM_P2
2022/03/31 00:00:53;;;;;;;;;;;;;;;21.72;24.90;97030.47;4954938;29;1522;-78
2022/03/31 00:03:18;;;;;;;;;;;;;;;21.63;24.98;97021.94;4955590;29;1078;-79
2022/03/31 00:05:44;;;;;;;;;;;;;;;21.44;25.34;97021.13;4955498;29;1036;-79
2022/03/31 00:08:10;;;;;;;;;;;;;;;21.91;24.39;97013.50;4955232;29;2320;-78
2022/03/31 00:10:37;;;;;;;;;;;;;;;22.21;24.23;97006.91;4939560;29;1108;-79
2022/03/31 00:13:04;;;;;;;;;;;;;;;21.99;24.02;97003.44;4955545;29;1911;-79
2022/03/31 00:15:30;;;;;;;;;;;;;;;21.77;24.60;96998.69;4955458;29;1128;-78
2022/03/31 00:17:55;;;;;;;;;;;;;;;21.48;25.06;97007.59;5001039;28;1543;-78
2022/03/31 00:20:21;;;;;;;;;;;;;;;21.45;25.29;96988.75;5016020;28;995;-79
2022/03/31 00:22:46;;;;;;;;;;;;;;;21.66;25.04;97008.88;5016149;28;911;-78
2022/03/31 00:25:13;;;;;;;;;;;;;;;22.08;24.32;96994.94;5016351;28;1135;-79
2022/03/31 00:27:39;;;;;;;;;;;;;;;22.23;24.21;96997.97;5016315;28;1674;-78
2022/03/31 00:30:05;;;;;;;;;;;;;;;21.67;24.96;96993.50;4974488;28;980;-78
2022/03/31 00:32:31;;;;;;;;;;;;;;;21.47;25.34;96988.28;4974569;28;1045;-78
2022/03/31 00:34:56;;;;;;;;;;;;;;;21.48;24.97;96993.47;4974494;28;1938;-77
2022/03/31 00:37:22;;;;;;;;;;;;;;;21.58;24.85;96968.78;4974477;28;1470;-79
2022/03/31 00:39:48;;;;;;;;;;;;;;;21.70;24.97;96962.19;4974620;28;1251;-79
2022/03/31 00:42:15;;;;;;;;;;;;;;;22.25;24.23;96967.09;4974851;28;980;-79
2022/03/31 00:44:41;;;;;;;;;;;;;;;22.24;24.17;96963.47;4974195;28;1014;-79
2022/03/31 00:47:07;;;;;;;;;;;;;;;21.78;24.62;96963.47;4974238;28;1525;-78
2022/03/31 00:49:34;;;;;;;;;;;;;;;21.54;25.23;96956.81;4974158;28;1164;-79
2022/03/31 00:52:00;;;;;;;;;;;;;;;21.58;25.16;96946.16;4974494;28;982;-78
2022/03/31 00:54:25;;;;;;;;;;;;;;;21.41;25.14;96961.84;4974540;28;1914;-79
2022/03/31 00:56:51;;;;;;;;;;;;;;;21.50;25.06;96950.53;4971299;28;1505;-78
2022/03/31 00:59:17;;;;;;;;;;;;;;;21.74;24.79;96942.22;4954702;29;1140;-79
2022/03/31 01:01:44;;;;;;;;;;;;;;;21.69;25.10;96940.81;4970208;28;1096;-78
2022/03/31 01:04:10;;;;;;;;;;;;;;;22.15;24.02;96937.97;4974397;28;1046;-79
2022/03/31 01:06:35;;;;;;;;;;;;;;;22.28;23.88;96949.16;4974756;28;1489;-76
2022/03/31 01:09:01;;;;;;;;;;;;;;;21.91;24.59;96939.84;4993526;28;1069;-79
2022/03/31 01:11:28;;;;;;;;;;;;;;;21.63;24.87;96941.91;4993886;28;1028;-78
2022/03/31 01:13:54;;;;;;;;;;;;;;;21.44;25.26;96929.78;4997004;28;2229;-78
2022/03/31 01:16:19;;;;;;;;;;;;;;;21.41;25.29;96939.22;4996936;28;1086;-79
2022/03/31 01:18:45;;;;;;;;;;;;;;;21.64;25.00;96944.25;4978915;28;1582;-78
2022/03/31 01:21:10;;;;;;;;;;;;;;;22.14;24.26;96936.41;4978056;28;1513;-79
2022/03/31 01:23:36;;;;;;;;;;;;;;;22.23;24.29;96950.56;4977338;28;1091;-79
2022/03/31 01:26:01;;;;;;;;;;;;;;;21.76;24.67;96945.34;4961887;28;953;-79
2022/03/31 01:28:27;;;;;;;;;;;;;;;21.67;25.02;96949.00;4993831;28;1703;-78
2022/03/31 01:30:52;;;;;;;;;;;;;;;21.48;24.93;96948.16;4999482;28;953;-77
2022/03/31 01:33:18;;;;;;;;;;;;;;;21.62;24.92;96943.94;4999002;28;1979;-79
2022/03/31 01:35:43;;;;;;;;;;;;;;;21.54;25.36;96929.31;4998995;28;1027;-76
2022/03/31 01:38:09;;;;;;;;;;;;;;;22.00;24.48;96931.34;5000754;28;1481;-78
2022/03/31 01:40:35;;;;;;;;;;;;;;;22.05;24.26;96939.22;5018999;28;1156;-79
2022/03/31 01:43:00;;;;;;;;;;;;;;;21.60;25.06;96932.28;5018426;28;1062;-79
2022/03/31 01:45:26;;;;;;;;;;;;;;;21.57;24.89;96942.53;5018739;28;880;-79
2022/03/31 01:47:51;;;;;;;;;;;;;;;21.55;24.98;96944.25;5018418;28;1431;-77
2022/03/31 01:50:17;;;;;;;;;;;;;;;21.65;25.27;96951.50;5018193;28;1457;-78
2022/03/31 01:52:42;;;;;;;;;;;;;;;22.12;24.30;96936.09;5018240;28;1240;-78
2022/03/31 01:55:08;;;;;;;;;;;;;;;22.19;24.50;96932.94;5000732;28;1985;-78
2022/03/31 01:57:33;;;;;;;;;;;;;;;21.66;25.01;96933.28;4976785;28;1660;-77
2022/03/31 02:00:02;;;;;;;;;;;;;;;21.59;25.07;96933.56;4998772;28;954;-79
2022/03/31 02:02:39;;;;;;;;;;;;;;;21.62;25.21;96940.34;4998555;28;987;-78
2022/03/31 02:05:06;;;;;;;;;;;;;;;21.67;25.31;96929.16;4998523;28;942;-78
2022/03/31 02:07:32;;;;;;;;;;;;;;;21.59;25.22;96930.72;5017433;28;1620;-78
2022/03/31 02:09:58;;;;;;;;;;;;;;;21.49;25.46;96926.31;5018179;28;908;-79
2022/03/31 02:12:23;;;;;;;;;;;;;;;21.54;25.38;96940.63;5018446;28;910;-79
2022/03/31 02:14:49;;;;;;;;;;;;;;;22.04;24.60;96937.66;5017819;28;1917;-78
2022/03/31 02:17:14;;;;;;;;;;;;;;;22.24;24.34;96940.81;5017644;28;1605;-77
2022/03/31 02:19:40;;;;;;;;;;;;;;;21.72;25.37;96945.53;5017994;28;1022;-79
2022/03/31 02:22:05;;;;;;;;;;;;;;;21.61;25.54;96936.72;4983274;28;1201;-77
2022/03/31 02:24:31;;;;;;;;;;;;;;;21.44;26.02;96932.59;5017151;28;945;-79
2022/03/31 02:26:57;;;;;;;;;;;;;;;21.52;25.96;96936.72;5017536;28;1579;-76
2022/03/31 02:29:22;;;;;;;;;;;;;;;21.53;26.09;96939.06;4975810;28;1031;-78
2022/03/31 02:31:47;;;;;;;;;;;;;;;21.93;25.64;96943.00;4976226;28;963;-78
2022/03/31 02:34:14;;;;;;;;;;;;;;;22.16;25.38;96933.09;4975839;28;2073;-78
2022/03/31 02:36:40;;;;;;;;;;;;;;;21.84;25.46;96940.97;4964469;28;1371;-78
2022/03/31 02:39:06;;;;;;;;;;;;;;;21.70;25.72;96931.03;4956752;29;985;-78
2022/03/31 02:41:32;;;;;;;;;;;;;;;21.51;26.27;96935.16;4956855;28;1481;-78
2022/03/31 02:43:57;;;;;;;;;;;;;;;21.46;26.12;96933.72;4956726;29;1180;-78
2022/03/31 02:46:23;;;;;;;;;;;;;;;21.57;26.15;96945.38;4965252;28;1554;-78
2022/03/31 02:48:49;;;;;;;;;;;;;;;21.51;26.04;96938.75;4975736;28;1042;-78
2022/03/31 02:51:14;;;;;;;;;;;;;;;21.54;26.42;96923.66;4975652;28;1164;-78
2022/03/31 02:56:23;;;;;;;;;;;;;;;22.18;25.42;96925.72;4966810;28;1533;-78
2022/03/31 02:58:49;;;;;;;;;;;;;;;22.20;25.45;96913.91;4973580;28;1534;-78
2022/03/31 03:01:14;;;;;;;;;;;;;;;21.67;26.02;96909.34;5010960;28;1449;-78
2022/03/31 03:03:40;;;;;;;;;;;;;;;21.55;26.42;96904.63;5016977;28;1768;-77
2022/03/31 03:06:05;;;;;;;;;;;;;;;21.52;26.50;96900.69;5017007;28;1624;-77
2022/03/31 03:08:31;;;;;;;;;;;;;;;21.61;26.30;96905.59;5017219;28;944;-78
2022/03/31 03:11:00;;;;;;;;;;;;;;;21.73;26.14;96918.78;5017370;28;902;-78
2022/03/31 03:13:25;;;;;;;;;;;;;;;21.63;26.38;96937.03;5016791;28;1887;-79
2022/03/31 03:15:51;;;;;;;;;;;;;;;21.61;26.59;96933.91;5016293;28;1527;-78
2022/03/31 03:18:18;;;;;;;;;;;;;;;21.68;26.31;96930.75;5017109;28;1047;-78
2022/03/31 03:20:44;;;;;;;;;;;;;;;21.53;26.70;96941.09;4999097;28;2846;-78
2022/03/31 03:23:09;;;;;;;;;;;;;;;21.61;26.29;96939.56;5016808;28;1456;-78
2022/03/31 03:25:35;;;;;;;;;;;;;;;21.65;26.30;96940.16;5017020;28;967;-78
2022/03/31 03:28:00;;;;;;;;;;;;;;;21.61;26.51;96939.56;5016649;28;948;-77
2022/03/31 03:30:26;;;;;;;;;;;;;;;22.00;26.03;96931.34;5016581;28;976;-78
2022/03/31 03:32:51;;;;;;;;;;;;;;;22.23;25.86;96944.91;4981693;28;992;-78
2022/03/31 03:35:17;;;;;;;;;;;;;;;21.91;26.20;96956.84;5016249;28;1913;-80
2022/03/31 03:37:42;;;;;;;;;;;;;;;21.77;26.43;96953.41;5016835;28;1017;-77
2022/03/31 03:40:09;;;;;;;;;;;;;;;21.67;26.33;96953.88;5016717;28;931;-78
2022/03/31 03:42:35;;;;;;;;;;;;;;;21.59;26.64;96942.84;5013691;28;884;-77
2022/03/31 03:45:00;;;;;;;;;;;;;;;21.99;26.05;96941.13;5016333;28;1773;-79
2022/03/31 03:47:26;;;;;;;;;;;;;;;22.20;25.82;96936.56;5016569;28;975;-77
2022/03/31 03:49:51;;;;;;;;;;;;;;;22.12;25.54;96940.97;5015991;28;1091;-79
2022/03/31 03:52:17;;;;;;;;;;;;;;;21.91;25.93;96934.19;5022955;28;1612;-78
2022/03/31 03:54:42;;;;;;;;;;;;;;;21.57;26.56;96936.09;5023176;28;1980;-76
2022/03/31 03:57:08;;;;;;;;;;;;;;;21.65;26.62;96923.19;5016680;28;923;-79
2022/03/31 03:59:33;;;;;;;;;;;;;;;21.72;26.58;96922.88;5016552;28;1022;-78
2022/03/31 04:02:02;;;;;;;;;;;;;;;21.65;26.63;96917.50;5017003;28;912;-79
2022/03/31 04:04:29;;;;;;;;;;;;;;;21.64;26.53;96903.84;5016081;28;1816;-78
2022/03/31 04:06:55;;;;;;;;;;;;;;;22.23;25.70;96915.78;5016816;28;1163;-79
2022/03/31 04:09:20;;;;;;;;;;;;;;;22.38;25.77;96911.00;5016143;28;926;-77
2022/03/31 04:11:46;;;;;;;;;;;;;;;22.48;25.54;96914.59;5016003;28;986;-77
2022/03/31 04:14:11;;;;;;;;;;;;;;;22.34;25.52;96922.53;5015881;28;1909;-78
2022/03/31 04:16:36;;;;;;;;;;;;;;;21.90;26.04;96927.75;5016743;28;949;-78
2022/03/31 04:19:04;;;;;;;;;;;;;;;21.68;26.80;96927.91;4974596;28;1038;-79
2022/03/31 04:21:29;;;;;;;;;;;;;;;21.72;26.57;96922.88;4936135;29;981;-77
2022/03/31 04:23:55;;;;;;;;;;;;;;;21.70;26.58;96931.03;4935805;29;1102;-78
2022/03/31 04:26:20;;;;;;;;;;;;;;;21.59;26.92;96931.50;4936003;29;1017;-78
2022/03/31 04:28:46;;;;;;;;;;;;;;;21.70;26.87;96942.38;4936126;29;960;-78
2022/03/31 04:31:11;;;;;;;;;;;;;;;21.70;26.83;96944.41;4936298;29;1026;-78
2022/03/31 04:33:36;;;;;;;;;;;;;;;21.56;27.01;96943.00;4935984;29;1981;-76
2022/03/31 04:36:02;;;;;;;;;;;;;;;21.49;27.10;96943.31;4936172;29;1253;-78
2022/03/31 04:38:27;;;;;;;;;;;;;;;21.58;26.68;96946.16;4920053;29;1050;-78
2022/03/31 04:40:53;;;;;;;;;;;;;;;21.55;26.88;96941.41;4935898;29;1013;-78
2022/03/31 04:43:18;;;;;;;;;;;;;;;21.54;26.98;96928.53;4935818;29;974;-78
2022/03/31 04:45:44;;;;;;;;;;;;;;;22.07;26.21;96933.84;4936305;29;1092;-78
2022/03/31 04:48:09;;;;;;;;;;;;;;;22.30;25.81;96927.56;4938226;29;1036;-77
2022/03/31 04:50:35;;;;;;;;;;;;;;;21.83;26.62;96931.69;4967873;28;1031;-76
2022/03/31 04:53:00;;;;;;;;;;;;;;;21.76;26.53;96922.72;4978122;28;1032;-77
2022/03/31 04:55:26;;;;;;;;;;;;;;;21.65;26.87;96916.72;4977941;28;1911;-78
2022/03/31 04:57:51;;;;;;;;;;;;;;;21.70;26.94;96930.25;4980719;28;1000;-77
2022/03/31 05:00:17;;;;;;;;;;;;;;;21.57;27.07;96933.25;5019426;28;926;-78
2022/03/31 05:02:42;;;;;;;;;;;;;;;21.66;27.01;96947.41;5019498;28;916;-77
2022/03/31 05:05:08;;;;;;;;;;;;;;;21.73;26.56;96952.75;5019434;28;1210;-78
2022/03/31 05:07:34;;;;;;;;;;;;;;;21.60;27.03;96946.44;5029424;28;1286;-78
2022/03/31 05:09:59;;;;;;;;;;;;;;;21.45;27.23;96945.50;5021916;28;1380;-78
2022/03/31 05:12:24;;;;;;;;;;;;;;;21.56;27.20;96931.69;5019237;28;999;-77
2022/03/31 05:14:51;;;;;;;;;;;;;;;21.56;26.92;96928.84;5019295;28;1975;-79
2022/03/31 05:17:16;;;;;;;;;;;;;;;21.64;27.16;96926.50;5019311;28;1092;-78
2022/03/31 05:19:42;;;;;;;;;;;;;;;21.66;27.10;96924.78;5019032;28;907;-76
2022/03/31 05:22:07;;;;;;;;;;;;;;;22.14;26.32;96919.41;5018822;28;931;-77
2022/03/31 05:24:33;;;;;;;;;;;;;;;22.24;26.19;96912.47;5026717;28;1036;-77
2022/03/31 05:26:58;;;;;;;;;;;;;;;21.79;26.69;96910.44;5024454;28;1193;-79
2022/03/31 05:29:24;;;;;;;;;;;;;;;21.72;26.91;96893.78;5018745;28;889;-78
2022/03/31 05:31:50;;;;;;;;;;;;;;;21.54;27.13;96894.56;5019263;28;1136;-78
2022/03/31 05:34:15;;;;;;;;;;;;;;;21.62;27.17;96912.81;4957855;29;1907;-78
2022/03/31 05:36:41;;;;;;;;;;;;;;;21.93;26.68;96914.69;4958021;29;1062;-78
2022/03/31 05:39:06;;;;;;;;;;;;;;;22.12;26.36;96910.59;4919762;29;1060;-78
2022/03/31 05:41:32;;;;;;;;;;;;;;;22.02;26.53;96906.16;4920049;29;971;-79
2022/03/31 05:43:58;;;;;;;;;;;;;;;21.72;27.05;96908.72;4919312;29;930;-78
2022/03/31 05:46:23;;;;;;;;;;;;;;;21.60;27.21;96901.16;4919880;29;999;-78
2022/03/31 05:48:49;;;;;;;;;;;;;;;21.52;27.28;96897.09;4919467;29;1047;-76
2022/03/31 05:51:15;;;;;;;;;;;;;;;21.60;26.97;96898.31;4919652;29;1216;-77
2022/03/31 05:53:40;;;;;;;;;;;;;;;21.59;27.23;96896.75;4881690;29;1910;-77
2022/03/31 05:56:07;;;;;;;;;;;;;;;21.57;27.04;96890.81;4881833;29;948;-76
2022/03/31 05:58:32;;;;;;;;;;;;;;;21.55;27.06;96887.63;4862045;29;1092;-79
2022/03/31 06:00:58;;;;;;;;;;;;;;;21.54;27.38;96891.72;4863319;29;1050;-78
2022/03/31 06:03:24;;;;;;;;;;;;;;;21.57;27.04;96887.97;4863103;29;1057;-77
2022/03/31 06:05:50;;;;;;;;;;;;;;;21.54;27.52;96889.69;4904730;29;1107;-78
2022/03/31 06:08:17;;;;;;;;;;;;;;;21.91;27.06;96905.88;4900099;29;951;-78
2022/03/31 06:10:42;;;;;;;;;;;;;;;22.23;26.50;96905.25;4914648;29;1159;-77
2022/03/31 06:13:09;;;;;;;;;;;;;;;21.87;26.66;96893.94;4919246;29;1903;-78
2022/03/31 06:15:35;;;;;;;;;;;;;;;21.61;27.13;96897.09;4919548;29;962;-78
2022/03/31 06:18:00;;;;;;;;;;;;;;;21.66;27.27;96885.16;4918698;29;1021;-78
2022/03/31 06:20:26;;;;;;;;;;;;;;;21.63;27.30;96897.41;4919321;29;1091;-78
2022/03/31 06:22:52;;;;;;;;;;;;;;;22.02;26.78;96906.16;4919081;29;978;-78
2022/03/31 06:25:17;;;;;;;;;;;;;;;22.36;26.41;96902.97;4948077;29;1160;-77
2022/03/31 06:27:43;;;;;;;;;;;;;;;21.94;26.63;96904.94;4956868;29;968;-78
2022/03/31 06:30:09;;;;;;;;;;;;;;;21.76;27.06;96900.88;4952063;29;1094;-77
2022/03/31 06:32:34;;;;;;;;;;;;;;;21.70;27.38;96910.44;4956968;29;1207;-77
2022/03/31 06:35:00;;;;;;;;;;;;;;;21.60;27.21;96909.66;4957133;29;1923;-78
2022/03/31 06:37:25;;;;;;;;;;;;;;;21.59;27.55;96903.22;4957112;29;1010;-79
2022/03/31 06:39:51;;;;;;;;;;;;;;;21.71;27.29;96918.47;4937302;29;920;-78
2022/03/31 06:42:16;;;;;;;;;;;;;;;21.66;27.50;96918.31;4937427;29;1037;-78
2022/03/31 06:44:42;;;;;;;;;;;;;;;21.55;27.75;96924.44;4937533;29;975;-78
2022/03/31 06:47:07;;;;;;;;;;;;;;;21.53;27.81;96915.63;4937787;29;963;-79
2022/03/31 06:49:34;;;;;;;;;;;;;;;21.56;27.72;96911.88;4936922;29;1296;-79
2022/03/31 06:52:00;;;;;;;;;;;;;;;21.96;27.38;96925.06;4938063;29;938;-77
2022/03/31 06:54:27;;;;;;;;;;;;;;;22.15;26.76;96937.97;4937405;29;1911;-78
2022/03/31 06:56:52;;;;;;;;;;;;;;;21.92;27.17;96930.91;4937543;29;1191;-78
2022/03/31 06:59:20;;;;;;;;;;;;;;;21.64;27.30;96938.59;4937518;29;1065;-78
2022/03/31 07:01:46;;;;;;;;;;;;;;;21.72;27.51;96934.22;4935966;29;1117;-78
2022/03/31 07:04:11;;;;;;;;;;;;;;;21.73;27.15;96944.28;4956041;29;1246;-78
2022/03/31 07:06:37;;;;;;;;;;;;;;;21.59;27.83;96947.72;4956402;29;1033;-78
2022/03/31 07:09:03;;;;;;;;;;;;;;;21.68;27.70;96944.91;4923820;29;1088;-77
2022/03/31 07:11:29;;;;;;;;;;;;;;;22.01;27.24;96944.25;4964178;28;1487;-77
2022/03/31 07:13:54;;;;;;;;;;;;;;;22.22;26.67;96948.97;4957193;28;1914;-78
2022/03/31 07:16:20;;;;;;;;;;;;;;;21.87;27.34;96951.34;4962719;28;975;-77
2022/03/31 07:18:45;;;;;;;;;;;;;;;21.84;27.27;96949.47;5016921;28;1025;-78
2022/03/31 07:21:11;;;;;;;;;;;;;;;21.66;27.74;96950.25;5017066;28;914;-79
2022/03/31 07:23:36;;;;;;;;;;;;;;;21.63;27.70;96954.00;5016697;28;960;-78
2022/03/31 07:26:02;;;;;;;;;;;;;;;21.59;27.96;96953.38;5017194;28;923;-77
2022/03/31 07:28:27;;;;;;;;;;;;;;;21.57;27.91;96961.56;5016518;28;1046;-79
2022/03/31 07:30:56;;;;;;;;;;;;;;;21.63;27.78;96948.34;5016372;28;1056;-78
2022/03/31 07:33:21;;;;;;;;;;;;;;;21.56;27.68;96960.00;5016792;28;1902;-79
2022/03/31 07:35:48;;;;;;;;;;;;;;;21.91;27.55;96956.84;5016847;28;830;-77
2022/03/31 07:38:14;;;;;;;;;;;;;;;22.22;26.81;96943.31;5016173;28;832;-78
2022/03/31 07:40:40;;;;;;;;;;;;;;;21.81;27.65;96948.38;4966122;28;963;-78
2022/03/31 07:43:05;;;;;;;;;;;;;;;21.69;27.61;96954.97;5016524;28;1099;-79
2022/03/31 07:45:32;;;;;;;;;;;;;;;21.64;27.65;96960.47;5016446;28;925;-78
2022/03/31 07:47:58;;;;;;;;;;;;;;;21.58;28.01;96963.13;5016590;28;1035;-77
2022/03/31 07:50:23;;;;;;;;;;;;;;;21.55;27.65;96975.38;5016843;28;1089;-77
2022/03/31 07:52:49;;;;;;;;;;;;;;;21.68;27.59;96978.88;5016489;28;992;-77
2022/03/31 07:55:16;;;;;;;;;;;;;;;21.62;27.63;96962.97;5016429;28;1907;-77
2022/03/31 07:57:41;;;;;;;;;;;;;;;21.53;27.92;96960.91;5016693;28;926;-78
2022/03/31 08:00:08;;;;;;;;;;;;;;;21.44;28.02;96980.72;5016189;28;997;-78
2022/03/31 08:02:41;;;;;;;;;;;;;;;21.62;28.03;96957.31;4955616;29;956;-79
2022/03/31 08:05:06;;;;;;;;;;;;;;;21.57;27.96;96955.91;4936113;29;1000;-77
2022/03/31 08:07:32;;;;;;;;;;;;;;;21.72;27.54;96968.19;4936535;29;1034;-79
2022/03/31 08:09:58;;;;;;;;;;;;;;;21.58;27.86;96963.13;4936434;29;966;-78
2022/03/31 08:12:23;;;;;;;;;;;;;;;22.01;27.45;96953.53;4936541;29;978;-79
2022/03/31 08:14:48;;;;;;;;;;;;;;;22.29;26.91;96960.00;4936427;29;1977;-78
2022/03/31 08:17:14;;;;;;;;;;;;;;;21.91;27.26;96962.50;4936720;29;951;-78
2022/03/31 08:19:40;;;;;;;;;;;;;;;21.72;27.82;96956.84;4936216;29;1011;-78
2022/03/31 08:22:05;;;;;;;;;;;;;;;21.67;27.98;96959.53;4937405;29;1008;-78
2022/03/31 08:24:31;;;;;;;;;;;;;;;21.63;27.91;96948.34;4940389;29;966;-77
2022/03/31 08:26:58;;;;;;;;;;;;;;;21.68;27.88;96944.91;4939951;29;1063;-78
2022/03/31 08:29:25;;;;;;;;;;;;;;;21.49;28.01;96937.63;4923846;29;920;-78
2022/03/31 08:31:50;;;;;;;;;;;;;;;21.54;27.99;96939.84;4940439;29;990;-79
2022/03/31 08:34:16;;;;;;;;;;;;;;;21.50;28.10;96925.06;4939769;29;1903;-77
2022/03/31 08:36:41;;;;;;;;;;;;;;;21.55;28.02;96935.75;4940055;29;946;-77
2022/03/31 08:39:07;;;;;;;;;;;;;;;22.01;27.56;96930.09;4945177;28;925;-80
2022/03/31 08:41:32;;;;;;;;;;;;;;;22.14;27.16;96949.78;4939814;29;1010;-78
2022/03/31 08:43:58;;;;;;;;;;;;;;;21.94;27.37;96939.69;4939625;29;968;-77
2022/03/31 08:46:24;;;;;;;;;;;;;;;21.75;27.88;96938.91;4940098;29;1107;-78
2022/03/31 08:48:49;;;;;;;;;;;;;;;21.75;27.77;96944.56;4936744;29;1006;-76
2022/03/31 08:51:15;;;;;;;;;;;;;;;21.60;28.06;96935.13;4939815;29;1414;-77
2022/03/31 08:53:41;;;;;;;;;;;;;;;21.49;28.02;96931.97;4939545;29;1974;-77
2022/03/31 08:56:08;;;;;;;;;;;;;;;21.53;28.09;96929.78;4939799;29;1068;-79
2022/03/31 08:58:35;;;;;;;;;;;;;;;21.62;27.99;96935.47;4920496;29;1290;-78
2022/03/31 09:01:01;;;;;;;;;;;;;;;21.45;28.39;96923.66;4912034;29;1061;-78
2022/03/31 09:03:32;;;;;;;;;;;;;;;21.47;28.41;96914.69;4920419;29;1011;-77
2022/03/31 09:05:58;;;;;;;;;;;;;;;21.49;28.38;96915.00;4882646;29;999;-79
2022/03/31 09:08:23;;;;;;;;;;;;;;;21.57;28.15;96904.94;4845552;29;1354;-78
2022/03/31 09:10:51;;;;;;;;;;;;;;;21.50;28.38;96899.59;4845588;29;1058;-78
2022/03/31 09:13:23;;;;;;;;;;;;;;;21.62;28.04;96895.03;4875243;29;1982;-77
2022/03/31 09:15:50;;;;;;;;;;;;;;;21.47;28.56;96903.38;4845512;29;1084;-78
2022/03/31 09:18:16;;;;;;;;;;;;;;;21.56;28.15;96920.38;4863643;29;1102;-77
2022/03/31 09:20:43;;;;;;;;;;;;;;;21.59;27.89;96923.03;4864061;29;1134;-79
2022/03/31 09:23:14;;;;;;;;;;;;;;;21.53;28.53;96924.91;4863906;29;1061;-79
2022/03/31 09:25:40;;;;;;;;;;;;;;;22.04;27.63;96932.00;4863692;29;1049;-78
2022/03/31 09:28:12;;;;;;;;;;;;;;;22.36;27.06;96937.00;4848198;29;1073;-78
2022/03/31 09:31:05;;;;;;;;;;;;;;;21.97;27.32;96941.59;4826642;29;1107;-79
2022/03/31 09:33:32;;;;;;;;;;;;;;;21.78;27.87;96943.63;4808670;29;1904;-78
2022/03/31 09:35:58;;;;;;;;;;;;;;;21.66;28.21;96926.78;4811697;29;1122;-78
2022/03/31 09:38:24;;;;;;;;;;;;;;;21.54;27.99;96917.97;4848208;29;1086;-77
2022/03/31 09:40:49;;;;;;;;;;;;;;;21.71;27.83;96912.81;4866695;29;1199;-79
2022/03/31 09:43:15;;;;;;;;;;;;;;;21.57;28.35;96934.03;4882273;29;977;-79
2022/03/31 09:45:40;;;;;;;;;;;;;;;21.63;28.37;96924.91;4881589;29;1062;-79
2022/03/31 09:48:08;;;;;;;;;;;;;;;21.46;28.32;96915.97;4863699;29;1105;-78
2022/03/31 09:50:34;;;;;;;;;;;;;;;21.54;28.26;96906.66;4881468;29;1143;-78
2022/03/31 09:53:00;;;;;;;;;;;;;;;22.20;27.37;96911.84;4844668;29;1123;-78
2022/03/31 09:55:25;;;;;;;;;;;;;;;22.20;27.25;96911.84;4829592;29;1911;-77
2022/03/31 09:57:51;;;;;;;;;;;;;;;21.83;27.88;96905.41;4865934;29;1006;-79
2022/03/31 10:00:17;;;;;;;;;;;;;;;21.77;28.16;96896.78;4861300;29;1515;-77
2022/03/31 10:02:42;;;;;;;;;;;;;;;21.68;28.24;96891.09;4879125;29;1632;-78
2022/03/31 10:05:08;;;;;;;;;;;;;;;21.68;28.28;96887.50;4865792;29;1696;-77
2022/03/31 10:07:34;;;;;;;;;;;;;;;21.61;28.29;96885.78;4862853;29;1515;-79
2022/03/31 10:09:59;;;;;;;;;;;;;;;21.64;28.21;96893.31;4850242;29;1511;-79
2022/03/31 10:12:31;;;;;;;;;;;;;;;21.52;28.32;96891.44;4872030;29;1558;-77
2022/03/31 10:15:01;;;;;;;;;;;;;;;21.72;28.06;96883.25;4875368;29;1993;-78
2022/03/31 10:17:27;;;;;;;;;;;;;;;21.70;27.97;96885.75;4872802;29;1762;-78
2022/03/31 10:19:53;;;;;;;;;;;;;;;21.55;28.54;96879.16;4855780;29;1396;-78
2022/03/31 10:25:07;;;;;;;;;;;;;;;21.49;28.67;96876.16;4868524;29;1554;-76
2022/03/31 10:27:34;;;;;;;;;;;;;;;21.56;28.61;96877.91;4881136;29;1118;-76
2022/03/31 10:30:12;;;;;;;;;;;;;;;21.84;28.57;96882.28;4881039;29;1226;-78
2022/03/31 10:32:38;;;;;;;;;;;;;;;22.05;28.04;96891.84;4865661;29;1310;-77
2022/03/31 10:35:03;;;;;;;;;;;;;;;22.03;27.72;96890.75;4880919;29;1968;-78
2022/03/31 10:37:38;;;;;;;;;;;;;;;21.83;28.24;96899.75;4888666;29;1018;-78
2022/03/31 10:40:05;;;;;;;;;;;;;;;21.79;27.92;96882.91;4899806;29;1044;-77
2022/03/31 10:42:30;;;;;;;;;;;;;;;21.76;27.94;96872.56;4899705;29;1024;-78
2022/03/31 10:45:21;;;;;;;;;;;;;;;21.67;28.14;96878.22;4944559;28;1549;-78
2022/03/31 10:47:50;;;;;;;;;;;;;;;21.64;28.33;96870.66;4937532;29;1090;-78
2022/03/31 10:50:23;;;;;;;;;;;;;;;21.56;28.42;96863.75;4950880;28;1333;-77
2022/03/31 10:52:59;;;;;;;;;;;;;;;21.58;28.32;96850.69;4917868;29;1086;-76
2022/03/31 10:55:32;;;;;;;;;;;;;;;21.58;28.64;96844.25;4883951;29;1914;-78
2022/03/31 10:57:57;;;;;;;;;;;;;;;21.63;28.66;96811.69;4899377;29;962;-77
2022/03/31 11:00:23;;;;;;;;;;;;;;;21.77;28.30;96806.16;4900758;29;1892;-82
2022/03/31 11:02:52;;;;;;;;;;;;;;;21.81;28.66;96818.13;4888356;29;2111;-79
2022/03/31 11:05:21;;;;;;;;;;;;;;;21.90;28.83;96813.69;4899305;29;1693;-76
2022/03/31 11:07:48;;;;;;;;;;;;;;;22.01;29.36;96813.97;4887597;29;1697;-70
2022/03/31 11:10:13;;;;;;;;;;;;;;;22.48;29.18;96829.56;4885637;29;1590;-70
2022/03/31 11:12:39;;;;;;;;;;;;;;;22.67;30.07;96850.91;4891524;29;1993;-70
2022/03/31 11:15:11;;;;;;;;;;;;;;;22.91;29.75;96847.34;4884804;29;1906;-72
2022/03/31 11:17:37;;;;;;;;;;;;;;;22.77;30.63;96841.06;4852400;29;1648;-71
2022/03/31 11:20:06;;;;;;;;;;;;;;;22.90;30.45;96845.75;4853532;29;1500;-71
2022/03/31 11:22:31;;;;;;;;;;;;;;;22.95;30.54;96847.94;4848470;29;1688;-72
2022/03/31 11:25:12;;;;;;;;;;;;;;;23.12;30.15;96852.72;4877636;29;1681;-71
2022/03/31 11:27:38;;;;;;;;;;;;;;;23.14;30.42;96863.56;4880395;29;1593;-76
2022/03/31 11:30:07;;;;;;;;;;;;;;;22.93;30.78;96867.50;4871091;29;1680;-77
2022/03/31 11:32:32;;;;;;;;;;;;;;;22.70;30.75;96864.13;4903795;29;1513;-75
2022/03/31 11:34:58;;;;;;;;;;;;;;;22.36;31.14;96863.31;4917015;29;1969;-75
2022/03/31 11:37:24;;;;;;;;;;;;;;;22.38;30.87;96868.47;4917411;29;1053;-76
2022/03/31 11:39:49;;;;;;;;;;;;;;;22.33;30.66;96869.94;4922130;29;1550;-76
2022/03/31 11:42:15;;;;;;;;;;;;;;;22.27;30.77;96860.50;4910317;29;1621;-75
2022/03/31 11:44:41;;;;;;;;;;;;;;;22.15;30.47;96872.81;4926816;29;1674;-75
2022/03/31 11:47:10;;;;;;;;;;;;;;;22.12;30.53;96862.44;4969933;28;1575;-76
2022/03/31 11:49:36;;;;;;;;;;;;;;;22.03;30.40;96866.06;5012459;28;1225;-76
2022/03/31 11:52:01;;;;;;;;;;;;;;;22.14;30.46;96874.09;5016283;28;1201;-75
2022/03/31 11:54:27;;;;;;;;;;;;;;;21.94;30.48;96873.78;5016110;28;1902;-76
2022/03/31 11:57:19;;;;;;;;;;;;;;;22.08;30.08;96861.81;5015906;28;1038;-76
2022/03/31 11:59:45;;;;;;;;;;;;;;;22.06;29.89;96839.59;4917228;29;1098;-75
2022/03/31 12:02:13;;;;;;;;;;;;;;;22.07;30.01;96827.03;4917297;29;1089;-77
2022/03/31 12:04:41;;;;;;;;;;;;;;;21.85;30.13;96807.38;4917333;29;1081;-75
2022/03/31 12:07:06;;;;;;;;;;;;;;;21.95;29.83;96804.53;4917056;29;979;-75
2022/03/31 12:09:32;;;;;;;;;;;;;;;21.92;29.97;96809.13;4917148;29;1118;-76
2022/03/31 12:11:58;;;;;;;;;;;;;;;21.96;29.88;96811.78;4901437;29;1012;-75
2022/03/31 12:14:25;;;;;;;;;;;;;;;21.94;29.73;96814.31;4901134;29;1974;-75
2022/03/31 12:16:51;;;;;;;;;;;;;;;21.92;29.94;96828.16;4917196;29;1085;-77
2022/03/31 12:19:16;;;;;;;;;;;;;;;21.71;29.96;96819.41;4917127;29;975;-76
2022/03/31 12:21:46;;;;;;;;;;;;;;;21.88;29.77;96791.50;4917469;29;1092;-75
2022/03/31 12:24:12;;;;;;;;;;;;;;;21.89;29.58;96778.13;4917095;29;1066;-76
2022/03/31 12:26:38;;;;;;;;;;;;;;;21.91;29.31;96769.94;4917171;29;1140;-76
2022/03/31 12:29:13;;;;;;;;;;;;;;;21.92;29.26;96777.19;4917094;29;982;-75
2022/03/31 12:31:39;;;;;;;;;;;;;;;21.71;29.67;96791.09;4916769;29;1010;-75
2022/03/31 12:34:04;;;;;;;;;;;;;;;21.81;29.23;96784.13;4916851;29;1907;-76
2022/03/31 12:36:34;;;;;;;;;;;;;;;21.87;29.18;96792.00;4964972;28;1026;-76
2022/03/31 12:39:03;;;;;;;;;;;;;;;21.78;29.28;96796.41;4955028;29;1056;-76
2022/03/31 12:41:33;;;;;;;;;;;;;;;21.79;28.98;96775.31;4954624;29;1291;-76
2022/03/31 12:44:00;;;;;;;;;;;;;;;21.84;28.90;96788.84;4954950;29;1024;-75
2022/03/31 12:46:30;;;;;;;;;;;;;;;21.81;28.84;96801.13;4916648;29;990;-74
2022/03/31 12:49:21;;;;;;;;;;;;;;;21.73;28.95;96790.59;4916438;29;1085;-75
2022/03/31 12:51:48;;;;;;;;;;;;;;;21.69;29.07;96770.94;4860666;29;1034;-75
2022/03/31 12:54:20;;;;;;;;;;;;;;;21.75;28.93;96771.88;4860501;29;1903;-75
2022/03/31 12:56:46;;;;;;;;;;;;;;;21.81;28.80;96784.13;4860695;29;1044;-75
2022/03/31 12:59:21;;;;;;;;;;;;;;;21.81;28.66;96778.47;4860768;29;939;-75
2022/03/31 13:02:18;;;;;;;;;;;;;;;21.81;28.67;96781.31;4860246;29;1234;-76